North Spring Valley, Nevada Weather observations

Data are for 10 minute period ending at time listed.
 Day   Time   Solar   Ave.   Ave.  Ave.  Vector  Max.   Baro.   Total    
  of    of     Rad.   Air    Rel.  Wind   Wind   Wind  Press.  Precip.   
Year   Day            Temp.  Hum.  Speed  Dir.   Gust                    
2015   (PST)  Kw/m2    F      %     mph   deg.    mph    mb.     in.     
-------------------------------------------------------------------------
 244   11:20   0.95   85.7    12    7.1   213    17.8   826.8    0.00 
 244   11:30   0.95   85.0    12    8.2   220    15.6   826.7    0.00 
 244   11:40   0.95   86.4    11    8.4   186    16.3   826.7    0.00 
 244   11:50   0.95   86.1    11    6.7   196    21.5   826.7    0.00 
 244   12:00   0.95   86.0    11    8.9   202    21.6   826.7    0.00 
 244   12:10   0.94   86.3    11    8.7   198    15.8   826.6    0.00 
 244   12:20   0.94   86.4    11    7.1   204    13.3   826.6    0.00 
 244   12:30   0.93   87.0    11    7.2   182    17.6   826.5    0.00 
 244   12:40   0.92   87.2    11   11.0   185    20.2   826.4    0.00 
 244   12:50   0.91   87.0    11    9.8   190    17.2   826.3    0.00 
 244   13:00   0.89   87.1    11   10.2   188    19.8   826.3    0.00 
 244   13:10   0.88   87.5    11    7.6   171    15.8   826.2    0.00 
 244   13:20   0.86   87.2    11   11.0   215    16.2   826.1    0.00 
 244   13:30   0.84   86.9    12    9.5   230    17.2   826.0    0.00 
 244   13:40   0.82   87.6    11    9.4   178    14.5   826.0    0.00 
 244   13:50   0.81   87.2    11   10.0   197    18.4   826.0    0.00 
 244   14:00   0.80   87.7    11    4.2   196    11.2   825.8    0.00 
 244   14:10   0.77   87.3    11    5.9   233    14.6   825.7    0.00 
 244   14:20   0.74   87.2    12    9.7   234    20.1   825.6    0.00 
 244   14:30   0.71   87.2    12    9.1   213    19.8   825.6    0.00 
 244   14:40   0.52   85.6    14    7.9   257    16.4   825.5    0.00 
 244   14:50   0.61   86.3    12    6.8   225    17.0   825.5    0.00 
 244   15:00   0.53   86.9    14    4.5   266     8.7   825.4    0.00 
 244   15:10   0.25   84.7    13    6.6   194    15.6   825.4    0.00 
 244   15:20   0.17   84.6    12    8.2   197    15.0   825.3    0.00 
 244   15:30   0.30   83.8    12    7.4   212    14.8   825.2    0.00 
 244   15:40   0.52   86.0    14    5.8   239    15.6   825.0    0.00 
 244   15:50   0.50   87.1    12    4.7   209    12.6   825.0    0.00 
 244   16:00   0.31   86.7    12    7.4   194    12.8   825.0    0.00 
 244   16:10   0.39   86.2    13    7.2   226    11.6   825.0    0.00 
 244   16:20   0.35   84.4    15    4.6   278    12.1   825.0    0.00 
 244   16:30   0.25   84.7    13    7.0   239    14.5   825.0    0.00 
 244   16:40   0.08   81.0    16    4.7   265     9.1   825.0    0.00 
 244   16:50   0.25   83.7    13    4.5   215    10.4   825.0    0.00 
 244   17:00   0.15   84.8    13    5.7   196    12.9   824.9    0.00 
 244   17:10   0.14   83.0    14    6.3   218    10.7   824.9    0.00 
 244   17:20   0.03   80.0    15    6.9   233    12.8   824.9    0.00 
 244   17:30   0.02   80.9    13    7.8   221    16.7   824.7    0.00 
 244   17:40   0.02   79.4    14    5.0   208    10.8   824.6    0.00 
 244   17:50   0.02   80.7    13    8.5   198    14.2   824.7    0.00 
 244   18:00   0.01   79.6    14    6.3   190    14.5   824.7    0.00 
 244   18:10   0.01   80.4    13   10.2   202    16.4   824.8    0.00 
 244   18:20   0.00   80.3    13    9.2   198    14.2   824.8    0.00 
 244   18:30   0.00   78.9    14    4.5   197     8.6   825.0    0.00 
 244   18:40   0.00   77.2    14    6.1   201    10.2   825.1    0.00 
 244   18:50   0.00   77.4    14    7.3   199    13.5   825.2    0.00 
 244   19:00   0.00   77.1    14    5.9   194    10.5   825.3    0.00 
 244   19:10   0.00   77.5    14    6.3   194     9.2   825.5    0.00 
 244   19:20   0.00   77.9    14    8.1   194    13.9   825.5    0.00 
 244   19:30   0.00   77.7    14    8.8   184    13.5   825.6    0.00 
 244   19:40   0.00   76.4    15    7.6   182    12.2   825.8    0.00 
 244   19:50   0.00   76.2    16    8.2   186    13.2   825.8    0.00 
 244   20:00   0.00   75.5    17    8.0   186    13.1   826.0    0.00 
 244   20:10   0.00   76.0    17    8.8   189    13.3   826.1    0.00 
 244   20:20   0.00   74.5    19    7.6   177    12.3   826.2    0.00 
 244   20:30   0.00   73.5    19    6.4   181    11.5   826.2    0.00 
 244   20:40   0.00   75.0    18    8.9   197    15.7   826.3    0.00 
 244   20:50   0.00   76.2    17   10.1   199    17.0   826.3    0.00 
 244   21:00   0.00   75.8    17    9.4   207    14.1   826.2    0.00 
 244   21:10   0.00   73.1    20    5.6   164    11.8   826.3    0.00 
 244   21:20   0.00   67.1    26    7.7   155    14.2   826.4    0.00 
 244   21:30   0.00   67.6    27    8.6   166    13.4   826.6    0.00 
 244   21:40   0.00   67.9    27    8.8   167    12.9   826.7    0.00 
 244   21:50   0.00   68.1    27    8.9   166    13.9   826.8    0.00 
 244   22:00   0.00   68.5    27   10.3   167    15.9   826.9    0.00 
 244   22:10   0.00   69.4    27   11.5   166    17.6   827.0    0.00 
 244   22:20   0.00   68.6    29   12.1   184    23.0   827.1    0.00 
 244   22:30   0.00   69.2    28   12.4   177    17.4   827.1    0.00 
 244   22:40   0.00   69.3    28   13.5   180    21.5   827.1    0.00 
 244   22:50   0.00   69.3    29   11.7   184    17.8   827.1    0.00 
 244   23:00   0.00   68.5    30   11.8   168    19.1   827.1    0.00 
 244   23:10   0.00   67.9    30   12.0   153    18.3   827.0    0.00 
 244   23:20   0.00   67.4    31   10.9   154    16.2   827.0    0.00 
 244   23:30   0.00   68.3    30   10.9   149    16.6   827.0    0.00 
 244   23:40   0.00   69.2    30   11.4   160    18.9   827.0    0.00 
 244   23:50   0.00   68.5    31   10.7   168    16.1   827.1    0.00 
 245    0:00   0.00   68.6    32   10.4   160    21.0   827.0    0.00 
 245    0:10   0.00   67.6    33   11.3   170    18.3   827.1    0.00 
 245    0:20   0.00   67.6    34   11.1   167    16.4   827.1    0.00 
 245    0:30   0.00   67.1    36   10.9   158    20.9   827.1    0.00 
 245    0:40   0.00   66.5    37   11.2   157    18.9   827.1    0.00 
 245    0:50   0.00   67.2    36    8.0   160    13.5   827.1    0.00 
 245    1:00   0.00   66.7    36    9.2   159    16.7   827.2    0.00 
 245    1:10   0.00   66.9    35    7.8   160    15.5   827.2    0.00 
 245    1:20   0.00   67.3    35    9.8   154    15.1   827.1    0.00 
 245    1:30   0.00   67.4    35    8.8   159    13.8   827.3    0.00 
 245    1:40   0.00   66.7    37    7.8   165    14.9   827.4    0.00 
 245    1:50   0.00   65.9    39    9.4   159    14.2   827.4    0.00 
 245    2:00   0.00   65.7    39    7.4   161    14.0   827.4    0.00 
 245    2:10   0.00   65.9    40    6.4   169    12.1   827.6    0.00 
 245    2:20   0.00   64.1    43    4.3   156     8.0   827.6    0.00 
 245    2:30   0.00   65.8    40    8.1   179    13.1   827.6    0.00 
 245    2:40   0.00   67.4    37   10.2   192    20.3   827.4    0.00 
 245    2:50   0.00   67.4    37   11.0   201    18.7   827.3    0.00 
 245    3:00   0.00   67.6    36   12.2   203    20.5   827.3    0.00 
 245    3:10   0.00   68.6    33   13.4   201    21.3   827.2    0.00 
 245    3:20   0.00   68.7    32   10.9   213    20.8   827.2    0.00 
 245    3:30   0.00   68.5    33   10.8   209    16.7   827.2    0.00 
 245    3:40   0.00   67.8    34   10.0   214    16.1   827.1    0.00 
 245    3:50   0.00   68.0    33   12.2   207    21.0   827.1    0.00 
 245    4:00   0.00   68.9    32   11.8   201    19.1   827.1    0.00 
 245    4:10   0.00   68.3    33   11.4   198    18.6   827.2    0.00 
 245    4:20   0.00   68.3    33    8.9   201    17.6   827.3    0.00 
 245    4:30   0.00   65.7    38    6.7   126    10.6   827.3    0.00 
 245    4:40   0.00   63.7    42    5.7   120     9.7   827.4    0.00 
 245    4:50   0.00   63.2    43    4.1   175     7.5   827.5    0.00 
 245    5:00   0.00   64.8    41    4.3   179     8.6   827.7    0.00 
 245    5:10   0.01   65.0    43    6.2   178     9.1   827.7    0.00 
 245    5:20   0.01   65.3    43    8.7   182    15.3   827.7    0.00 
 245    5:30   0.03   65.8    43    9.9   169    14.5   827.8    0.00 
 245    5:40   0.06   66.2    44    9.2   176    13.4   828.0    0.00 
 245    5:50   0.06   67.2    44    9.6   184    14.6   828.1    0.00 
 245    6:00   0.04   66.9    45    8.9   199    12.5   828.2    0.00 
 245    6:10   0.15   67.6    45    9.6   184    15.1   828.3    0.00 
 245    6:20   0.21   69.1    44    9.7   171    15.9   828.3    0.00 
 245    6:30   0.23   69.4    44   10.1   174    14.8   828.3    0.00 
 245    6:40   0.24   69.6    43   12.1   174    17.8   828.1    0.00 
 245    6:50   0.17   68.4    45   12.0   180    18.6   828.2    0.00 
 245    7:00   0.33   68.7    45   11.8   194    17.0   828.2    0.00 
 245    7:10   0.37   69.5    44   13.4   186    18.3   828.0    0.00 
 245    7:20   0.46   70.6    43   15.3   172    24.1   827.9    0.00 
 245    7:30   0.48   72.3    41   16.6   170    24.5   827.9    0.00 
 245    7:40   0.47   72.1    41   16.1   178    24.1   827.9    0.00 
 245    7:50   0.62   74.1    38   15.8   174    22.4   827.7    0.00 
 245    8:00   0.64   74.9    37   16.7   166    25.2   827.5    0.00 
 245    8:10   0.64   75.4    35   17.6   172    27.2   827.5    0.00 
 245    8:20   0.65   75.8    34   18.4   170    25.2   827.4    0.00 
 245    8:30   0.61   75.7    35   17.9   171    27.9   827.4    0.00 
 245    8:40   0.66   76.0    35   17.4   167    26.2   827.4    0.00 
 245    8:50   0.66   76.8    34   16.2   165    24.9   827.4    0.00 
 245    9:00   0.78   77.8    32   17.2   168    25.4   827.4    0.00 
 245    9:10   0.82   78.6    32   16.6   168    25.1   827.4    0.00 
 245    9:20   0.83   78.2    32   17.4   166    23.8   827.5    0.00 
 245    9:30   0.88   78.4    33   17.7   164    26.2   827.4    0.00 
 245    9:40   0.89   79.0    32   16.3   156    25.9   827.4    0.00 
 245    9:50   0.93   79.6    31   16.4   160    25.3   827.4    0.00 
 245   10:00   0.96   79.9    31   17.0   158    23.5   827.2    0.00 
 245   10:10   0.92   80.4    30   15.1   160    23.8   827.2    0.00 
 245   10:20   0.56   80.3    30   14.8   161    24.0   827.1    0.00 
 245   10:30   0.42   77.6    33   17.6   163    24.7   827.0    0.00 
 245   10:40   0.81   79.6    31   16.8   154    24.8   826.8    0.00 
 245   10:50   0.76   79.4    30   17.8   161    25.5   826.7    0.00 
 245   11:00   0.69   80.3    27   15.9   170    25.7   826.6    0.00 
 245   11:10   0.56   81.1    25   14.4   161    30.0   826.4    0.00 

Return to North Spring Valley graphs page.


Western Regional Climate Center,wrcc@dri.edu